Station info - map view · info · telemetry · weather · raw · status · beacons · messages · bulletins · browse · moving · my account
Callsign, ship name or locator: Clear       
It is possible to search using wildcards (*?) after a prefix. Example: OH*
APRS station HB9EMQ-9 - show graphs
Map loading...
Comment: 145.375MHz C4FM (IPA) HS0ZIM
Mic-E message: Special
Location: 47°18.74' N 7°48.72' E - locator JN37VH74KX - show map - static map
7.5 miles Southwest bearing 242° from Obergösgen, Bezirk Olten, Solothurn, Switzerland [?]
8.1 miles Southwest bearing 232° from Lostorf, Bezirk Gösgen, Solothurn, Switzerland
34.7 miles West bearing 264° from Zürich, Bezirk Zürich, Zurich, Switzerland
47.2 miles South bearing 182° from Freiburg, Regierungsbezirk Freiburg, Baden-Württemberg, Germany
Last position: 2017-09-02 18:45:42 EDT (18d 10h7m ago)
2017-09-03 00:45:42 CEST local time at Obergösgen, Switzerland [?]
Altitude: 1453 ft
Course: 274°
Speed: 58 MPH
Device: Yaesu: FTM-400DR (rig)
Last path: HB9EMQ-9>4W1XW4 via WIDE1-1,WIDE2-1,qAR,HB9AVQ-10 (good)
Positions stored: 19290
Other SSIDs: HB9EMQ HB9EMQ-1 HB9EMQ-2 HB9EMQ-3 HB9EMQ-4 HB9EMQ-7
Stations near current position of HB9EMQ-9 - show more
callsign distance last heard - EDT      callsign distance last heard - EDT
HB9DTZ0.9 miles 102°2017-09-19 04:57:46 OH1RA-91.8 miles 272°2017-09-19 01:57:13
HB9CRZ-132.0 miles 109°2017-09-21 04:47:06 HB9CRZ2.0 miles 108°2017-09-19 03:28:14
HB9DCO2.3 miles 27°2017-09-12 10:34:33 HB9FEF-93.2 miles 322°2017-09-06 17:39:33
HB9FEF-103.2 miles 322°2017-09-21 04:49:17 HB9DM-23.2 miles 322°2017-09-21 04:50:14
HB9DDE-103.6 miles 105°2017-09-21 04:47:45 HB9DDE3.6 miles 105°2017-09-21 01:31:19
HB9DDE-153.6 miles 105°2017-09-21 04:47:09 HB9DDE-73.6 miles 106°2017-09-16 07:44:54
BGVCZS3.7 miles 353°2017-09-21 04:51:49 HB9DDE-94.0 miles 85°2017-09-21 01:46:16
HB9FZX4.0 miles 186°2017-08-28 13:58:10 HB9EMQ-34.7 miles 247°2017-09-21 04:51:58
HB9EMQ-14.7 miles 247°2017-09-17 11:28:23 HB9EMQ-74.7 miles 247°2017-09-04 16:25:07
HB3YFA-74.8 miles 119°2017-09-20 13:48:06 HB9KAK-95.4 miles 90°2017-09-21 04:19:45
Stations which heard HB9EMQ-9 directly on radio –
callsign pkts first heard - EDT last heard longest (tx => rx) longest at - EDT
HB9BA-2 1 2017-09-02 18:26:15 2017-09-02 18:26:15 JN47CJ > JN37SB 37.7 miles 234° 2017-09-02 18:26:15
HB9ZF-1 13 2017-09-02 17:47:35 2017-09-02 18:22:03 JN47CK > JN47KG 31.7 miles 109° 2017-09-02 18:22:03
F8KOX-4 1 2017-09-02 17:57:56 2017-09-02 17:57:56 JN47HK > JN37KT 88.3 miles 288° 2017-09-02 17:57:56
HB9ONO-4 1 2017-09-02 18:44:26 2017-09-02 18:44:26 JN37WH > JN37PC 30.9 miles 244° 2017-09-02 18:44:26
HB9LU-10 1 2017-09-02 18:10:55 2017-09-02 18:10:55 JN47FJ > JN47DB 26.8 miles 197° 2017-09-02 18:10:55
HB9RF-10 5 2017-09-02 17:53:39 2017-09-02 18:26:51 JN47IK > JN47GA 30.8 miles 196° 2017-09-02 17:53:39
HB3YGT-10 16 2017-09-02 17:32:03 2017-09-02 17:45:11 JN47JM > JN47LN 9.0 miles 68° 2017-09-02 17:45:11
HB9ZF-3 26 2017-09-02 17:31:29 2017-09-02 18:23:53 JN47CJ > JN47HL 21.0 miles 75° 2017-09-02 18:23:53
HB9AVQ-10 2 2017-09-02 18:42:38 2017-09-02 18:45:42 JN37WH > JN36QW 34.7 miles 220° 2017-09-02 18:42:38
HB9AW-10 4 2017-09-02 17:58:31 2017-09-02 18:43:51 JN47HK > JN47AB 38.3 miles 230° 2017-09-02 17:58:31
HB9ZZ-1 4 2017-09-02 18:06:35 2017-09-02 18:27:55 JN47BJ > JN47GJ 18.8 miles 93° 2017-09-02 18:27:55
HB9TG 1 2017-09-02 18:07:11 2017-09-02 18:07:11 JN47GK > JN47MM 24.3 miles 72° 2017-09-02 18:07:11
DB0VS 1 2017-09-02 17:43:19 2017-09-02 17:43:19 JN47JM > JN48EC 43.0 miles 335° 2017-09-02 17:43:19
HB9KOM-1 1 2017-09-02 17:42:07 2017-09-02 17:42:07 JN47JN > JN47OJ 18.9 miles 120° 2017-09-02 17:42:07
DB0WBD-10 17 2017-09-02 17:31:26 2017-09-02 18:35:42 JN47AH > JN47ET 37.7 miles 23° 2017-09-02 18:35:42
DM0SAT-3 4 2017-09-02 17:43:20 2017-09-02 17:48:48 JN47IM > JN47JS 18.3 miles 20° 2017-09-02 17:48:48
HB9FEF-10 1 2017-09-02 18:25:39 2017-09-02 18:25:39 JN47CJ > JN37VI 20.2 miles 261° 2017-09-02 18:25:39
HB9JNJ-1 2 2017-09-02 17:50:01 2017-09-02 17:52:25 JN47IM > JN47IL 2.5 miles 107° 2017-09-02 17:50:01
DB0ZKN 1 2017-09-02 17:42:44 2017-09-02 17:42:44 JN47JM > JN47OP 18.5 miles 65° 2017-09-02 17:42:44
HB9FXJ-10 1 2017-09-02 17:30:50 2017-09-02 17:30:50 JN47MN > JN47NN 3.8 miles 90° 2017-09-02 17:30:50
HB9CF-1 1 2017-09-02 18:05:59 2017-09-02 18:05:59 JN47GK > JN46GP 54.6 miles 177° 2017-09-02 18:05:59
HB9RF-1 1 2017-09-02 18:20:07 2017-09-02 18:20:07 JN47DK > JN47FE 20.4 miles 159° 2017-09-02 18:20:07
HB9FX-10 18 2017-09-02 18:20:43 2017-09-02 18:45:02 JN47DK > JN37XH 16.8 miles 233° 2017-09-02 18:20:43
HB9NF-10 1 2017-09-02 17:49:24 2017-09-02 17:49:24 JN47IM > JN47KJ 13.7 miles 129° 2017-09-02 17:49:24

Only position packets which were originated by the station are shown here. The range statistics show some extra long hops, because some digipeaters do not correctly add themselves to the digipeater path. Please check the raw packets.
About this site
This page shows real-time information collected from the Automatic Position Reporting System Internet network (APRS-IS). APRS is used by amateur (ham) radio operators to transmit real-time position information, weather data, telemetry and messages over the radio. A vehicle equipped with a GPS receiver, a VHF transmitter or HF transceiver and a small computer device called a tracker transmits it's location, speed and course in a small data packet, which is then received by a nearby iGate receiving site which forwards the packet on the Internet. Systems connected to the Internet can send information on the APRS-IS without a radio transmitter, or collect and display information transmitted anywhere in the world.
FAQ · Blog · Discussion group · Linking to aprs.fi · AIS sites · Service status · Database statistics · Advertising on aprs.fi · Technical details · API · Change log · Planned changes · Credits and thanks · Terms Of Service · iPhone/iPad APRS